Toulon, IL (61483)

11:00 AM CST on February 06, 2016 (GMT -0600)
Stark County News | | Change Station
CLOSE
Current Station
Personal Weather Station
Location: Toulon, IL
Elevation: 735 ft
Nearby Weather Stations

Elev 735 ft 41.09 °N, 89.86 °W | Updated 9 minutes ago

Clear
Clear
39.0 °F
Feels Like 32 °F
N
10.4
Wind Variable Wind from SSW

Today
High -- | Low -- °F
--% Chance of Precip.
Yesterday
High -- | Low -- °F
Precip. -- in
Pressure 30.27 in
Visibility 10.0 miles
Clouds Clear
Windchill 32 °F
Dew Point 39 °F
Humidity 99%
Rainfall 0.00 in
Snow Depth Not available.
7:05 AM 5:22 PM
Waning Crescent, 5% visible
METAR KC75 061635Z AUTO 21007KT 10SM CLR 02/M03 A3027 RMK AO2 T00171035
Pressure 30.27 in
Visibility 10.0 miles
Clouds Clear
Windchill 32 °F
Dew Point 39 °F
Humidity 99%
Rainfall 0.00 in
Snow Depth Not available.
7:05 AM 5:22 PM
Waning Crescent, 5% visible
METAR KC75 061635Z AUTO 21007KT 10SM CLR 02/M03 A3027 RMK AO2 T00171035

10-Day Weather Forecast

Almanac

Astronomy

Feb. 06, 2016 Rise Set
Actual Time
Civil Twilight
Nautical Twilight
Astronomical Twilight
Moon
Length of Visible Light
Length of Day
Tomorrow will be .
, % of the Moon is Illuminated

Today's Extremes

State Highs State Lows

Community

WunderPhotos

Upload Photos

1,891,017 photos uploaded!

WunderBlog® & News

Nearby

Air Quality

  Air Quality AQ Index Pollutant
Not available.

Snow Depth

Station Depth Elevation

Earthquake Activity

City Distance Mag. Time & Date
Minimum magnitude displayed is 2.5.

Coastal Water Temperatures

Place Temperature

Stations

Nearby Weather Stations

Station Location Temp. Windchill Dew Point Humidity Wind Precip. Elev Updated Type
                   

Watches & Warnings

There are currently no watches in effect.